Whiteman Air Force Base Knob noster US
ICAO: KSZL
IATA: SZL
Category: Large
Scheduled Services: No

Elevation: 870 ft
TransAlt. 18000 ft.

Airport Communications:
ARNG HAWK OPS:49.65
APP:127.45
ATIS:139.3
CLNC DEL:121.75
DEP:125.925
GND:128.275
303 TFS OPS:22.78
PMSV METRO:34.46
COMD POST:31.1
PTD:118.725
TWR:132.4

KSZL Zoom In..

Runways:

(A) RW 01 length 12400 ft width 200 ft
ILS 110.30 / hdg 7

(B) RW 19 length 12400 ft width 200 ft
ILS 108.50 / hdg 187

Location; KSZL
Day. 19 / Time. 20.56 Zulu
* Altimeter: 29.81
* Temperature: 24° c. 75.2°f.
* Wind from: 190° Speed 08 kn.
Dewpoint: 20° c.
Visibility: 10 Statute Miles.
Clouds: Few 2500 ft.
Clouds: Broken 8000 ft.
Clouds: Broken 2000 ft.

KSZL 192056Z 19008KT 10SM FEW025 BKN080 BKN200 24/20 A2981 RMK AO2A LTG DSNT S AND W SLP090 60017 T02410202 55027 $


Wind From 190°
Speed 08 kn.

 
 
jpsmedia.com for Web Design worldairports.se 2018   terms of use